createdAt,value
2022-09-05T00:00:02.189Z,2.10
2022-09-05T00:02:51.270Z,1.52
2022-09-05T00:06:01.714Z,2.12
2022-09-05T00:08:43.810Z,1.60
2022-09-05T00:11:42.401Z,2.15
2022-09-05T00:14:36.740Z,1.85
2022-09-05T00:17:18.617Z,1.83
2022-09-05T00:24:21.854Z,1.60
2022-09-05T00:24:31.786Z,2.22
2022-09-05T00:26:09.587Z,1.90
2022-09-05T00:28:44.342Z,2.03
2022-09-05T00:31:54.744Z,1.73
2022-09-05T00:34:38.804Z,1.75
2022-09-05T00:37:27.937Z,1.40
2022-09-05T00:40:18.300Z,2.47
2022-09-05T00:42:50.199Z,2.12
2022-09-05T00:45:27.515Z,1.90
2022-09-05T00:48:03.174Z,1.98
2022-09-05T00:50:38.577Z,2.05
2022-09-05T00:53:15.781Z,1.87
2022-09-05T00:55:57.923Z,1.83
2022-09-05T00:58:46.170Z,1.77
2022-09-05T01:01:27.961Z,1.87
2022-09-05T01:04:05.890Z,1.90
2022-09-05T01:06:49.227Z,1.77
2022-09-05T01:09:27.563Z,1.70
2022-09-05T01:12:11.564Z,2.03
2022-09-05T01:14:52.349Z,1.75
2022-09-05T01:17:31.431Z,1.85
2022-09-05T01:20:19.032Z,1.80
2022-09-05T01:23:30.045Z,1.75
2022-09-05T01:26:11.124Z,2.80
2022-09-05T01:29:15.430Z,2.03
2022-09-05T01:31:38.996Z,2.17
2022-09-05T01:34:13.698Z,1.80
2022-09-05T01:36:55.054Z,1.70
2022-09-05T01:40:11.720Z,1.65
2022-09-05T01:42:31.860Z,1.90
2022-09-05T01:45:06.475Z,1.73
2022-09-05T01:47:45.367Z,2.08
2022-09-05T01:50:25.888Z,1.85
2022-09-05T01:53:09.650Z,2.10
2022-09-05T01:56:04.846Z,2.08
2022-09-05T01:58:45.569Z,1.70
2022-09-05T02:01:25.434Z,1.70
2022-09-05T02:04:23.176Z,1.73
2022-09-05T02:07:19.278Z,2.05
2022-09-05T02:12:41.255Z,1.52
2022-09-05T02:15:16.141Z,1.83
2022-09-05T02:17:51.877Z,2.17
2022-09-05T02:20:24.415Z,1.60
2022-09-05T02:23:00.533Z,1.52
2022-09-05T02:26:02.526Z,1.70
2022-09-05T02:28:30.819Z,2.15
2022-09-05T02:31:19.988Z,1.70
2022-09-05T02:34:01.732Z,2.00
2022-09-05T02:36:36.873Z,2.28
2022-09-05T02:45:02.023Z,1.83
2022-09-05T02:45:10.693Z,2.10
2022-09-05T02:45:25.488Z,1.50
2022-09-05T02:48:14.692Z,2.10
2022-09-05T02:57:28.594Z,1.75
2022-09-05T02:57:37.620Z,1.42
2022-09-05T02:57:43.274Z,1.70
2022-09-05T02:59:47.455Z,1.87
2022-09-05T03:02:25.308Z,1.70
2022-09-05T03:05:04.664Z,2.30
2022-09-05T03:07:50.053Z,1.90
2022-09-05T03:10:51.808Z,1.73
2022-09-05T03:14:00.094Z,1.55
2022-09-05T03:17:03.134Z,2.22
2022-09-05T03:20:11.011Z,1.92
2022-09-05T03:23:18.933Z,1.73
2022-09-05T03:26:17.847Z,2.45
2022-09-05T03:29:17.653Z,1.70
2022-09-05T03:32:05.451Z,2.17
2022-09-05T03:35:09.898Z,1.77
2022-09-05T03:37:50.532Z,2.10
2022-09-05T03:40:40.234Z,1.98
2022-09-05T03:43:41.856Z,2.65
2022-09-05T03:46:25.091Z,1.70
2022-09-05T03:51:09.258Z,1.75
2022-09-05T03:57:11.253Z,2.05
2022-09-05T03:57:17.061Z,1.83
2022-09-05T03:58:57.142Z,2.03
2022-09-05T04:06:58.365Z,2.00
2022-09-05T04:08:13.701Z,1.87
2022-09-05T04:08:15.371Z,2.22
2022-09-05T04:10:15.408Z,1.90
2022-09-05T04:12:51.068Z,2.45
2022-09-05T04:15:31.709Z,2.37
2022-09-05T04:18:03.968Z,2.00
2022-09-05T04:20:40.662Z,2.37
2022-09-05T04:23:16.713Z,2.15
2022-09-05T04:26:11.019Z,2.58
2022-09-05T04:28:54.094Z,2.05
2022-09-05T04:31:32.126Z,1.83
2022-09-05T04:34:14.409Z,1.77
2022-09-05T04:36:43.400Z,1.73
2022-09-05T04:39:26.264Z,1.92
2022-09-05T04:41:59.733Z,1.80
2022-09-05T04:44:31.225Z,1.52
2022-09-05T04:47:04.558Z,1.70
2022-09-05T04:49:35.284Z,1.90
2022-09-05T04:52:17.522Z,2.08
2022-09-05T04:54:57.441Z,2.17
2022-09-05T04:57:30.969Z,1.90
2022-09-05T05:05:32.016Z,2.33
2022-09-05T05:06:10.314Z,2.05
2022-09-05T05:08:52.037Z,2.47
2022-09-05T05:17:53.638Z,2.40
2022-09-05T05:18:02.812Z,2.35
2022-09-05T05:18:11.661Z,2.30
2022-09-05T05:20:42.578Z,2.60
2022-09-05T05:23:07.742Z,2.17
2022-09-05T05:25:44.519Z,2.28
2022-09-05T05:28:22.579Z,1.92
2022-09-05T05:31:01.211Z,2.20
2022-09-05T05:33:33.023Z,1.98
2022-09-05T05:36:05.474Z,2.50
2022-09-05T05:38:41.861Z,2.50
2022-09-05T05:41:16.493Z,2.45
2022-09-05T05:43:46.800Z,2.20
2022-09-05T05:46:24.998Z,2.45
2022-09-05T05:48:57.005Z,2.47
2022-09-05T05:52:01.386Z,2.40
2022-09-05T05:54:32.855Z,1.85
2022-09-05T05:57:22.075Z,2.40
2022-09-05T05:59:59.026Z,2.55
2022-09-05T06:03:09.766Z,2.03
2022-09-05T06:06:15.898Z,1.90
2022-09-05T06:14:49.842Z,1.85
2022-09-05T06:15:07.078Z,2.00
2022-09-05T06:16:19.089Z,1.98
2022-09-05T06:19:12.426Z,1.73
2022-09-05T06:22:09.974Z,2.20
2022-09-05T06:25:21.946Z,2.22
2022-09-05T06:28:19.363Z,2.47
2022-09-05T06:31:30.918Z,2.50
2022-09-05T06:34:07.019Z,2.47
2022-09-05T06:36:55.679Z,2.08
2022-09-05T06:39:36.536Z,2.03
2022-09-05T06:42:42.508Z,2.15
2022-09-05T06:45:28.399Z,2.25
2022-09-05T06:48:01.061Z,2.50
2022-09-05T06:51:07.202Z,2.92
2022-09-05T06:53:48.716Z,2.17
2022-09-05T06:56:56.173Z,2.12
2022-09-05T06:59:59.282Z,2.80
2022-09-05T07:02:59.393Z,2.40
2022-09-05T07:05:42.616Z,1.60
2022-09-05T07:08:35.258Z,2.35
2022-09-05T07:11:16.908Z,2.70
2022-09-05T07:13:55.870Z,2.10
2022-09-05T07:16:37.797Z,2.17
2022-09-05T07:19:30.199Z,2.08
2022-09-05T07:22:46.302Z,2.45
2022-09-05T07:25:09.275Z,1.90
2022-09-05T07:28:22.254Z,2.40
2022-09-05T07:30:32.639Z,2.17
2022-09-05T07:33:03.908Z,1.70
2022-09-05T07:38:16.688Z,1.80
2022-09-05T07:40:52.173Z,1.77
2022-09-05T07:43:23.945Z,2.10
2022-09-05T07:46:03.657Z,2.00
2022-09-05T07:48:36.760Z,1.62
2022-09-05T07:56:46.499Z,1.37
2022-09-05T07:56:59.130Z,1.30
2022-09-05T07:59:43.747Z,2.25
2022-09-05T08:02:13.750Z,1.55
2022-09-05T08:04:43.042Z,1.23
2022-09-05T08:07:48.049Z,2.58
2022-09-05T08:10:10.466Z,1.27
2022-09-05T08:13:22.709Z,1.27
2022-09-05T08:15:35.317Z,1.10
2022-09-05T08:18:24.367Z,1.25
2022-09-05T08:20:55.831Z,1.60
2022-09-05T08:23:40.324Z,1.10
2022-09-05T08:26:12.178Z,1.37
2022-09-05T08:28:53.606Z,1.10
2022-09-05T08:31:25.480Z,1.40
2022-09-05T08:33:56.814Z,1.37
2022-09-05T08:36:31.357Z,1.37
2022-09-05T08:39:02.111Z,1.23
2022-09-05T08:41:43.170Z,1.00
2022-09-05T08:46:37.623Z,1.40
2022-09-05T08:47:24.095Z,1.23
2022-09-05T08:50:28.785Z,1.77
2022-09-05T08:53:03.807Z,1.00
2022-09-05T08:55:59.976Z,1.40
2022-09-05T08:58:42.373Z,1.35
2022-09-05T09:01:16.430Z,1.25
2022-09-05T09:04:11.491Z,1.45
2022-09-05T09:07:48.106Z,1.37
2022-09-05T09:09:59.413Z,1.50
2022-09-05T09:12:49.762Z,1.60
2022-09-05T09:15:21.807Z,1.65
2022-09-05T09:17:50.972Z,1.67
2022-09-05T09:20:33.568Z,1.27
2022-09-05T09:23:05.480Z,1.85
2022-09-05T09:25:39.970Z,2.15
2022-09-05T09:28:50.235Z,1.40
2022-09-05T09:31:41.703Z,1.02
2022-09-05T09:34:36.776Z,1.80
2022-09-05T09:37:46.615Z,1.17
2022-09-05T09:40:38.505Z,1.25
2022-09-05T09:43:19.948Z,1.37
2022-09-05T09:46:10.880Z,1.25
2022-09-05T09:49:03.921Z,1.58
2022-09-05T09:51:48.285Z,0.90
2022-09-05T09:55:01.885Z,1.62
2022-09-05T09:57:55.950Z,1.30
2022-09-05T10:00:27.550Z,1.30
2022-09-05T10:10:24.731Z,1.50
2022-09-05T10:10:40.438Z,1.30
2022-09-05T10:10:53.062Z,1.50
2022-09-05T10:12:52.071Z,1.90
2022-09-05T10:15:43.811Z,1.33
2022-09-05T10:18:39.549Z,1.10
2022-09-05T10:21:34.458Z,1.30
2022-09-05T10:24:28.086Z,1.30
2022-09-05T10:27:26.529Z,1.30
2022-09-05T10:30:12.581Z,1.30
2022-09-05T10:35:22.834Z,1.35
2022-09-05T10:35:40.869Z,1.40
2022-09-05T10:38:14.140Z,1.65
2022-09-05T10:41:20.212Z,1.50
2022-09-05T10:43:42.928Z,1.15
2022-09-05T10:46:46.639Z,1.20
2022-09-05T10:49:11.753Z,1.27
2022-09-05T10:51:51.753Z,1.02
2022-09-05T10:54:40.294Z,1.50
2022-09-05T10:57:21.644Z,1.15
2022-09-05T11:02:22.306Z,1.40
2022-09-05T11:02:57.631Z,1.33
2022-09-05T11:05:30.040Z,1.42
2022-09-05T11:08:06.347Z,1.02
2022-09-05T11:10:37.667Z,1.55
2022-09-05T11:13:16.263Z,1.30
2022-09-05T11:16:03.393Z,1.15
2022-09-05T11:18:56.299Z,1.02
2022-09-05T11:22:07.457Z,1.20
2022-09-05T11:24:50.029Z,1.10
2022-09-05T11:27:27.700Z,0.90
2022-09-05T11:29:59.419Z,1.17
2022-09-05T11:39:54.718Z,1.00
2022-09-05T11:39:57.725Z,1.05
2022-09-05T11:39:59.595Z,1.00
2022-09-05T11:42:19.321Z,1.00
2022-09-05T11:45:11.390Z,1.42
2022-09-05T11:48:20.442Z,1.05
2022-09-05T11:51:08.116Z,1.10
2022-09-05T11:54:18.247Z,1.05
2022-09-05T11:57:30.470Z,0.88
2022-09-05T12:00:32.065Z,2.60
2022-09-05T12:03:57.198Z,0.98
2022-09-05T12:07:16.019Z,1.30
2022-09-05T12:10:05.926Z,1.25
2022-09-05T12:12:41.107Z,1.00
2022-09-05T12:15:23.118Z,0.90
2022-09-05T12:18:00.642Z,1.05
2022-09-05T12:20:37.952Z,1.00
2022-09-05T12:23:55.245Z,1.17
2022-09-05T12:27:43.063Z,1.10
2022-09-05T12:29:29.159Z,0.90
2022-09-05T12:36:12.499Z,1.20
2022-09-05T12:40:15.732Z,1.35
2022-09-05T12:41:38.352Z,1.37
2022-09-05T12:41:42.042Z,1.35
2022-09-05T12:43:52.654Z,0.93
2022-09-05T12:46:28.439Z,1.30
2022-09-05T12:49:07.331Z,1.20
2022-09-05T12:51:46.924Z,1.45
2022-09-05T12:54:34.049Z,1.20
2022-09-05T12:59:40.211Z,1.65
2022-09-05T13:03:02.326Z,1.17
2022-09-05T13:03:28.456Z,1.02
2022-09-05T13:05:59.101Z,1.10
2022-09-05T13:08:40.028Z,1.40
2022-09-05T13:14:47.251Z,1.12
2022-09-05T13:15:01.928Z,1.20
2022-09-05T13:16:53.559Z,1.27
2022-09-05T13:21:56.197Z,1.45
2022-09-05T13:24:30.743Z,1.35
2022-09-05T13:27:07.713Z,1.70
2022-09-05T13:30:57.732Z,1.27
2022-09-05T13:37:55.157Z,1.10
2022-09-05T13:38:14.752Z,1.30
2022-09-05T13:44:00.362Z,1.30
2022-09-05T13:46:58.267Z,1.10
2022-09-05T13:49:33.299Z,1.80
2022-09-05T13:52:15.433Z,0.98
2022-09-05T13:54:50.987Z,1.17
2022-09-05T13:57:33.152Z,1.15
2022-09-05T14:00:38.325Z,1.12
2022-09-05T14:03:58.907Z,0.90
2022-09-05T14:06:49.231Z,1.20
2022-09-05T14:12:12.787Z,1.20
2022-09-05T14:17:51.860Z,1.25
2022-09-05T14:20:43.052Z,1.08
2022-09-05T14:23:15.940Z,1.00
2022-09-05T14:25:49.943Z,1.20
2022-09-05T14:28:27.149Z,1.37
2022-09-05T14:35:12.334Z,1.75
2022-09-05T14:37:43.461Z,1.08
2022-09-05T14:37:50.094Z,1.45
2022-09-05T14:40:29.822Z,0.90
2022-09-05T14:43:24.449Z,1.00
2022-09-05T14:46:11.114Z,1.05
2022-09-05T14:48:53.072Z,1.37
2022-09-05T14:51:30.821Z,0.98
2022-09-05T14:54:02.300Z,1.20
2022-09-05T14:59:56.757Z,1.27
2022-09-05T15:02:42.570Z,1.00
2022-09-05T15:02:54.995Z,1.20
2022-09-05T15:05:19.020Z,1.02
2022-09-05T15:07:49.033Z,1.08
2022-09-05T15:12:17.766Z,1.00
2022-09-05T15:13:25.893Z,1.20
2022-09-05T15:16:02.601Z,1.30
2022-09-05T15:18:33.731Z,0.90
2022-09-05T15:21:33.809Z,1.30
2022-09-05T15:24:14.828Z,1.00
2022-09-05T15:26:53.315Z,1.20
2022-09-05T15:29:25.723Z,1.08
2022-09-05T15:32:09.416Z,0.85
2022-09-05T15:34:39.364Z,1.10
2022-09-05T15:37:31.963Z,1.33
2022-09-05T15:40:21.824Z,1.10
2022-09-05T15:42:55.484Z,1.17
2022-09-05T15:45:29.083Z,1.17
2022-09-05T15:48:16.347Z,1.45
2022-09-05T15:50:46.942Z,1.00
2022-09-05T15:55:49.906Z,1.20
2022-09-05T15:58:22.115Z,1.50
2022-09-05T16:00:55.438Z,1.30
2022-09-05T16:03:56.609Z,1.35
2022-09-05T16:10:30.752Z,1.10
2022-09-05T16:10:37.633Z,0.90
2022-09-05T16:12:30.142Z,1.20
2022-09-05T16:17:07.001Z,0.95
2022-09-05T16:23:19.632Z,1.10
2022-09-05T16:23:32.673Z,1.23
2022-09-05T16:23:42.871Z,1.05
2022-09-05T16:26:19.096Z,1.33
2022-09-05T16:28:58.755Z,1.50
2022-09-05T16:31:34.887Z,1.10
2022-09-05T16:34:11.686Z,1.58
2022-09-05T16:36:54.766Z,1.25
2022-09-05T16:39:39.778Z,1.48
2022-09-05T16:42:15.828Z,1.27
2022-09-05T16:44:48.464Z,1.35
2022-09-05T16:47:23.263Z,1.15
2022-09-05T16:50:00.168Z,1.45
2022-09-05T16:52:53.519Z,1.10
2022-09-05T16:55:29.623Z,1.10
2022-09-05T16:58:06.496Z,1.40
2022-09-05T17:00:58.206Z,1.23
2022-09-05T17:03:36.685Z,1.80
2022-09-05T17:06:26.390Z,1.27
2022-09-05T17:09:09.571Z,1.20
2022-09-05T17:12:01.119Z,1.33
2022-09-05T17:14:35.524Z,1.40
2022-09-05T17:17:36.175Z,1.23
2022-09-05T17:20:07.223Z,1.20
2022-09-05T17:25:54.158Z,1.87
2022-09-05T17:29:24.330Z,1.70
2022-09-05T17:29:31.063Z,1.70
2022-09-05T17:34:48.008Z,1.70
2022-09-05T17:37:23.849Z,1.60
2022-09-05T17:39:59.935Z,1.45
2022-09-05T17:42:39.309Z,1.30
2022-09-05T17:45:16.612Z,1.45
2022-09-05T17:47:49.418Z,1.70
2022-09-05T17:50:22.903Z,1.35
2022-09-05T17:53:26.226Z,1.35
2022-09-05T17:56:13.399Z,1.75
2022-09-05T17:59:04.319Z,1.60
2022-09-05T18:01:34.825Z,1.77
2022-09-05T18:04:16.699Z,1.80
2022-09-05T18:06:51.053Z,1.70
2022-09-05T18:10:15.211Z,1.48
2022-09-05T18:13:13.284Z,1.62
2022-09-05T18:16:10.615Z,2.28
2022-09-05T18:19:33.590Z,2.00
2022-09-05T18:21:49.786Z,1.92
2022-09-05T18:24:33.448Z,1.77
2022-09-05T18:27:37.912Z,1.83
2022-09-05T18:30:12.649Z,1.98
2022-09-05T18:32:45.131Z,1.90
2022-09-05T18:35:36.288Z,1.80
2022-09-05T18:38:27.457Z,1.75
2022-09-05T18:41:15.074Z,1.80
2022-09-05T18:44:00.492Z,2.10
2022-09-05T18:46:44.905Z,2.22
2022-09-05T18:50:23.897Z,2.45
2022-09-05T18:52:11.896Z,2.60
2022-09-05T18:54:43.359Z,3.37
2022-09-05T19:00:00.191Z,1.83
2022-09-05T19:02:51.470Z,2.30
2022-09-05T19:05:37.123Z,2.30
2022-09-05T19:08:31.983Z,2.53
2022-09-05T19:11:26.903Z,2.70
2022-09-05T19:14:25.390Z,2.20
2022-09-05T19:16:47.922Z,2.12
2022-09-05T19:19:24.380Z,1.83
2022-09-05T19:23:06.630Z,2.20
2022-09-05T19:24:47.469Z,1.90
2022-09-05T19:29:23.305Z,2.25
2022-09-05T19:36:56.640Z,3.03
2022-09-05T19:37:03.294Z,2.97
2022-09-05T19:37:06.262Z,2.55
2022-09-05T19:40:48.845Z,1.90
2022-09-05T19:47:25.171Z,2.03
2022-09-05T19:47:39.632Z,1.90
2022-09-05T19:47:40.242Z,1.90
2022-09-05T19:50:11.712Z,2.17
2022-09-05T19:52:42.125Z,1.92
2022-09-05T19:55:22.717Z,1.92
2022-09-05T19:58:14.995Z,2.00
2022-09-05T20:00:50.380Z,2.50
2022-09-05T20:03:38.710Z,1.98
2022-09-05T20:06:29.281Z,2.45
2022-09-05T20:09:15.313Z,1.95
2022-09-05T20:11:49.619Z,2.20
2022-09-05T20:14:21.359Z,1.87
2022-09-05T20:16:50.917Z,1.95
2022-09-05T20:19:31.715Z,2.10
2022-09-05T20:22:21.208Z,2.22
2022-09-05T20:24:53.921Z,2.22
2022-09-05T20:27:27.507Z,2.25
2022-09-05T20:29:59.079Z,2.80
2022-09-05T20:32:39.396Z,2.28
2022-09-05T20:37:51.629Z,2.35
2022-09-05T20:43:10.506Z,2.17
2022-09-05T20:43:19.944Z,2.12
2022-09-05T20:43:54.563Z,1.83
2022-09-05T20:49:22.898Z,1.80
2022-09-05T20:54:08.767Z,2.08
2022-09-05T20:54:12.793Z,1.70
2022-09-05T20:55:38.898Z,2.58
2022-09-05T20:58:10.648Z,2.17
2022-09-05T21:00:46.356Z,2.55
2022-09-05T21:03:36.770Z,2.50
2022-09-05T21:06:13.896Z,2.33
2022-09-05T21:08:43.001Z,2.87
2022-09-05T21:11:13.567Z,2.70
2022-09-05T21:13:52.335Z,2.03
2022-09-05T21:16:25.708Z,2.30
2022-09-05T21:18:54.731Z,1.92
2022-09-05T21:21:28.381Z,2.62
2022-09-05T21:24:08.984Z,2.47
2022-09-05T21:26:45.877Z,2.87
2022-09-05T21:29:18.087Z,2.37
2022-09-05T21:31:54.749Z,2.87
2022-09-05T21:34:29.502Z,2.53
2022-09-05T21:37:06.897Z,2.60
2022-09-05T21:39:55.303Z,2.67
2022-09-05T21:47:01.500Z,2.35
2022-09-05T21:47:38.860Z,2.60
2022-09-05T21:48:11.928Z,2.37
2022-09-05T21:50:46.168Z,2.03
2022-09-05T21:59:10.272Z,1.90
2022-09-05T21:59:17.795Z,2.03
2022-09-05T21:59:25.013Z,2.03
2022-09-05T22:02:00.328Z,2.28
2022-09-05T22:04:29.297Z,2.53
2022-09-05T22:07:02.567Z,2.25
2022-09-05T22:09:31.753Z,2.50
2022-09-05T22:12:00.404Z,1.95
2022-09-05T22:14:35.155Z,1.92
2022-09-05T22:17:07.077Z,2.42
2022-09-05T22:19:37.416Z,1.83
2022-09-05T22:22:16.220Z,1.80
2022-09-05T22:24:49.786Z,2.17
2022-09-05T22:27:20.161Z,2.08
2022-09-05T22:29:50.425Z,1.67
2022-09-05T22:32:34.480Z,1.95
2022-09-05T22:35:27.252Z,1.65
2022-09-05T22:38:01.022Z,2.40
2022-09-05T22:40:31.572Z,1.55
2022-09-05T22:43:01.480Z,2.10
2022-09-05T22:45:34.361Z,1.62
2022-09-05T22:48:13.107Z,1.35
2022-09-05T22:50:43.178Z,1.60
2022-09-05T22:53:11.914Z,1.42
2022-09-05T22:55:42.103Z,1.37
2022-09-05T22:58:13.012Z,1.60
2022-09-05T23:00:44.777Z,1.90
2022-09-05T23:03:15.233Z,2.15
2022-09-05T23:05:44.010Z,1.60
2022-09-05T23:08:13.220Z,1.55
2022-09-05T23:10:41.835Z,1.62
2022-09-05T23:13:11.441Z,1.27
2022-09-05T23:15:40.497Z,1.40
2022-09-05T23:18:09.215Z,1.50
2022-09-05T23:20:39.304Z,1.50
2022-09-05T23:23:08.618Z,1.45
2022-09-05T23:25:37.487Z,1.50
2022-09-05T23:28:07.437Z,1.48
2022-09-05T23:30:36.598Z,1.60
2022-09-05T23:33:06.737Z,1.48
2022-09-05T23:35:41.753Z,1.20
2022-09-05T23:38:12.594Z,1.45
2022-09-05T23:40:41.216Z,1.60
2022-09-05T23:43:10.365Z,1.35
2022-09-05T23:45:38.976Z,1.73
2022-09-05T23:48:07.559Z,2.22
2022-09-05T23:50:36.468Z,1.12
2022-09-05T23:53:05.665Z,1.58
2022-09-05T23:55:36.711Z,1.27
2022-09-05T23:58:05.586Z,1.50
